createdAt,value
2022-08-20T00:02:11.847Z,57.91
2022-08-20T00:04:39.647Z,58.36
2022-08-20T00:07:07.446Z,57.28
2022-08-20T00:09:36.715Z,58.31
2022-08-20T00:12:05.604Z,58.49
2022-08-20T00:14:33.878Z,58.00
2022-08-20T00:17:01.624Z,58.92
2022-08-20T00:19:30.494Z,58.73
2022-08-20T00:21:58.648Z,59.12
2022-08-20T00:24:26.263Z,59.23
2022-08-20T00:26:53.806Z,59.47
2022-08-20T00:29:22.303Z,59.07
2022-08-20T00:31:50.485Z,59.28
2022-08-20T00:34:18.217Z,59.30
2022-08-20T00:36:47.089Z,59.65
2022-08-20T00:39:14.614Z,59.36
2022-08-20T00:41:42.166Z,59.43
2022-08-20T00:44:13.135Z,59.46
2022-08-20T00:46:41.306Z,58.85
2022-08-20T00:49:12.343Z,59.88
2022-08-20T00:51:42.357Z,59.78
2022-08-20T00:54:15.649Z,59.97
2022-08-20T00:56:44.878Z,59.99
2022-08-20T00:59:17.730Z,60.64
2022-08-20T01:01:55.393Z,61.45
2022-08-20T01:04:26.125Z,61.63
2022-08-20T01:06:53.719Z,61.20
2022-08-20T01:09:49.803Z,61.40
2022-08-20T01:12:10.734Z,61.68
2022-08-20T01:14:43.761Z,61.27
2022-08-20T01:17:15.937Z,61.32
2022-08-20T01:19:51.678Z,61.20
2022-08-20T01:22:42.176Z,61.99
2022-08-20T01:25:16.183Z,62.00
2022-08-20T01:27:45.439Z,62.14
2022-08-20T01:30:14.347Z,62.74
2022-08-20T01:32:41.852Z,62.72
2022-08-20T01:35:10.412Z,62.95
2022-08-20T01:37:38.069Z,63.01
2022-08-20T01:40:09.565Z,63.15
2022-08-20T01:42:53.979Z,64.16
2022-08-20T01:45:30.422Z,63.33
2022-08-20T01:47:58.773Z,63.78
2022-08-20T01:50:29.086Z,64.19
2022-08-20T01:53:00.581Z,64.26
2022-08-20T01:55:28.288Z,64.82
2022-08-20T01:57:55.961Z,64.58
2022-08-20T02:00:24.242Z,64.06
2022-08-20T02:02:53.137Z,65.83
2022-08-20T02:05:21.380Z,65.92
2022-08-20T02:07:49.155Z,65.65
2022-08-20T02:10:18.224Z,65.33
2022-08-20T02:12:45.862Z,65.47
2022-08-20T02:15:13.989Z,65.87
2022-08-20T02:17:41.973Z,65.69
2022-08-20T02:20:13.823Z,66.13
2022-08-20T02:22:49.240Z,66.28
2022-08-20T02:25:19.345Z,65.91
2022-08-20T02:27:48.455Z,65.27
2022-08-20T02:30:28.042Z,65.45
2022-08-20T02:32:56.295Z,65.94
2022-08-20T02:35:25.523Z,64.45
2022-08-20T02:37:53.673Z,67.19
2022-08-20T02:40:27.263Z,66.30
2022-08-20T02:42:57.970Z,66.62
2022-08-20T02:45:25.525Z,66.95
2022-08-20T02:47:55.613Z,66.58
2022-08-20T02:50:26.047Z,66.95
2022-08-20T02:52:54.167Z,66.61
2022-08-20T02:55:27.767Z,66.40
2022-08-20T02:57:57.897Z,66.27
2022-08-20T03:00:26.732Z,65.67
2022-08-20T03:02:54.234Z,66.34
2022-08-20T03:05:21.886Z,64.97
2022-08-20T03:07:53.586Z,65.13
2022-08-20T03:10:23.992Z,66.06
2022-08-20T03:12:52.531Z,67.32
2022-08-20T03:15:20.603Z,66.04
2022-08-20T03:17:48.437Z,65.39
2022-08-20T03:20:16.091Z,65.27
2022-08-20T03:22:43.703Z,64.57
2022-08-20T03:25:12.974Z,66.39
2022-08-20T03:27:40.486Z,64.83
2022-08-20T03:30:10.486Z,64.37
2022-08-20T03:32:38.520Z,64.01
2022-08-20T03:35:08.229Z,64.24
2022-08-20T03:37:37.096Z,64.29
2022-08-20T03:40:14.397Z,64.33
2022-08-20T03:42:41.966Z,65.38
2022-08-20T03:45:11.300Z,66.45
2022-08-20T03:47:38.814Z,66.32
2022-08-20T03:50:08.801Z,65.42
2022-08-20T03:52:42.285Z,64.72
2022-08-20T03:55:11.773Z,64.04
2022-08-20T03:57:45.671Z,64.12
2022-08-20T04:00:15.109Z,64.37
2022-08-20T04:02:42.668Z,65.66
2022-08-20T04:05:10.304Z,66.34
2022-08-20T04:07:37.788Z,65.64
2022-08-20T04:10:07.945Z,66.20
2022-08-20T04:12:48.624Z,66.76
2022-08-20T04:15:21.246Z,66.37
2022-08-20T04:17:51.023Z,67.33
2022-08-20T04:20:26.081Z,67.04
2022-08-20T04:22:58.630Z,66.49
2022-08-20T04:25:28.410Z,66.11
2022-08-20T04:27:59.034Z,66.14
2022-08-20T04:30:27.112Z,66.27
2022-08-20T04:32:55.278Z,66.00
2022-08-20T04:35:25.309Z,66.37
2022-08-20T04:37:59.494Z,66.95
2022-08-20T04:40:44.814Z,66.62
2022-08-20T04:43:13.843Z,67.46
2022-08-20T04:45:41.638Z,67.76
2022-08-20T04:48:14.278Z,68.02
2022-08-20T04:50:44.321Z,68.03
2022-08-20T04:53:14.457Z,68.99
2022-08-20T04:55:43.340Z,68.63
2022-08-20T04:58:13.716Z,68.31
2022-08-20T05:00:41.872Z,68.73
2022-08-20T05:03:09.370Z,68.32
2022-08-20T05:05:36.953Z,69.07
2022-08-20T05:08:05.308Z,68.56
2022-08-20T05:10:43.604Z,68.44
2022-08-20T05:13:11.124Z,68.44
2022-08-20T05:15:40.437Z,68.69
2022-08-20T05:18:09.104Z,68.38
2022-08-20T05:20:41.985Z,67.27
2022-08-20T05:23:10.891Z,68.51
2022-08-20T05:25:39.063Z,67.53
2022-08-20T05:28:09.292Z,67.77
2022-08-20T05:30:37.789Z,67.57
2022-08-20T05:33:08.255Z,67.70
2022-08-20T05:35:38.553Z,67.55
2022-08-20T05:38:07.256Z,68.08
2022-08-20T05:40:34.748Z,67.35
2022-08-20T05:43:04.523Z,67.56
2022-08-20T05:45:32.160Z,67.75
2022-08-20T05:47:59.671Z,70.26
2022-08-20T05:50:33.145Z,70.83
2022-08-20T05:53:01.401Z,71.42
2022-08-20T05:55:29.286Z,71.41
2022-08-20T05:57:58.197Z,72.23
2022-08-20T06:00:26.180Z,70.97
2022-08-20T06:03:11.182Z,70.70
2022-08-20T06:05:40.085Z,72.36
2022-08-20T06:08:08.208Z,73.32
2022-08-20T06:10:36.206Z,72.74
2022-08-20T06:13:04.137Z,74.18
2022-08-20T06:15:32.277Z,75.31
2022-08-20T06:17:59.844Z,75.03
2022-08-20T06:20:28.911Z,74.01
2022-08-20T06:22:57.769Z,76.08
2022-08-20T06:25:25.234Z,75.24
2022-08-20T06:27:52.757Z,75.47
2022-08-20T06:30:20.352Z,74.38
2022-08-20T06:32:47.831Z,74.78
2022-08-20T06:35:19.735Z,74.72
2022-08-20T06:37:48.027Z,74.25
2022-08-20T06:40:22.859Z,75.78
2022-08-20T06:42:51.028Z,73.04
2022-08-20T06:45:20.251Z,73.22
2022-08-20T06:47:48.478Z,73.65
2022-08-20T06:50:18.049Z,72.57
2022-08-20T06:52:52.704Z,72.99
2022-08-20T06:55:22.750Z,72.65
2022-08-20T06:57:57.963Z,71.93
2022-08-20T07:00:25.514Z,72.06
2022-08-20T07:02:53.184Z,72.24
2022-08-20T07:05:20.788Z,72.32
2022-08-20T07:07:50.409Z,72.81
2022-08-20T07:10:20.352Z,74.08
2022-08-20T07:12:50.286Z,72.69
2022-08-20T07:15:19.361Z,71.24
2022-08-20T07:17:51.273Z,71.92
2022-08-20T07:20:19.127Z,72.52
2022-08-20T07:22:46.630Z,72.45
2022-08-20T07:25:18.063Z,70.95
2022-08-20T07:27:46.621Z,71.50
2022-08-20T07:30:56.229Z,69.60
2022-08-20T07:33:22.657Z,69.65
2022-08-20T07:35:50.345Z,70.03
2022-08-20T07:38:24.251Z,70.71
2022-08-20T07:40:53.123Z,70.33
2022-08-20T07:43:21.494Z,71.04
2022-08-20T07:45:52.201Z,69.86
2022-08-20T07:48:31.295Z,70.49
2022-08-20T07:51:01.052Z,70.62
2022-08-20T07:53:32.303Z,70.16
2022-08-20T07:56:03.325Z,67.91
2022-08-20T07:58:33.093Z,67.68
2022-08-20T08:01:02.592Z,67.71
2022-08-20T08:03:40.449Z,67.25
2022-08-20T08:06:28.725Z,67.09
2022-08-20T08:08:59.446Z,66.96
2022-08-20T08:11:27.027Z,65.89
2022-08-20T08:13:54.546Z,65.75
2022-08-20T08:16:23.489Z,65.41
2022-08-20T08:18:56.268Z,64.06
2022-08-20T08:21:23.791Z,62.96
2022-08-20T08:23:51.320Z,62.85
2022-08-20T08:26:19.819Z,63.38
2022-08-20T08:28:47.438Z,63.43
2022-08-20T08:31:16.197Z,63.53
2022-08-20T08:33:45.051Z,64.02
2022-08-20T08:36:15.107Z,63.10
2022-08-20T08:38:44.958Z,63.25
2022-08-20T08:41:17.310Z,63.78
2022-08-20T08:43:46.677Z,63.80
2022-08-20T08:46:14.855Z,65.56
2022-08-20T08:48:47.613Z,66.55
2022-08-20T08:51:18.096Z,66.23
2022-08-20T08:53:48.709Z,67.94
2022-08-20T08:56:16.358Z,67.76
2022-08-20T08:58:44.440Z,67.52
2022-08-20T09:01:53.140Z,66.15
2022-08-20T09:04:05.870Z,64.59
2022-08-20T09:06:33.831Z,62.66
2022-08-20T09:09:03.298Z,60.58
2022-08-20T09:11:32.051Z,59.62
2022-08-20T09:13:59.589Z,60.54
2022-08-20T09:16:27.973Z,61.26
2022-08-20T09:19:01.931Z,60.63
2022-08-20T09:21:29.508Z,60.11
2022-08-20T09:23:57.016Z,58.76
2022-08-20T09:26:29.111Z,58.00
2022-08-20T09:28:56.782Z,57.22
2022-08-20T09:31:24.330Z,57.54
2022-08-20T09:33:51.929Z,58.04
2022-08-20T09:36:30.677Z,57.42
2022-08-20T09:39:00.353Z,56.08
2022-08-20T09:41:28.020Z,56.85
2022-08-20T09:43:55.521Z,56.01
2022-08-20T09:46:27.260Z,55.90
2022-08-20T09:48:55.160Z,56.24
2022-08-20T09:51:24.099Z,55.71
2022-08-20T09:53:51.680Z,55.56
2022-08-20T09:56:19.279Z,54.33
2022-08-20T09:58:49.603Z,55.11
2022-08-20T10:01:19.046Z,55.46
2022-08-20T10:03:48.850Z,54.43
2022-08-20T10:06:17.742Z,53.99
2022-08-20T10:08:46.904Z,54.11
2022-08-20T10:11:14.446Z,52.67
2022-08-20T10:13:41.957Z,52.51
2022-08-20T10:16:09.462Z,53.26
2022-08-20T10:18:37.369Z,54.20
2022-08-20T10:21:10.443Z,53.69
2022-08-20T10:23:37.950Z,53.79
2022-08-20T10:26:08.249Z,54.21
2022-08-20T10:28:35.901Z,54.33
2022-08-20T10:31:04.603Z,53.69
2022-08-20T10:33:32.185Z,53.23
2022-08-20T10:36:00.261Z,51.73
2022-08-20T10:38:27.835Z,50.46
2022-08-20T10:40:55.465Z,50.28
2022-08-20T10:43:24.288Z,50.64
2022-08-20T10:45:52.087Z,49.09
2022-08-20T10:48:21.506Z,47.81
2022-08-20T10:50:49.843Z,47.79
2022-08-20T10:53:17.340Z,47.16
2022-08-20T10:55:45.024Z,47.35
2022-08-20T10:58:13.133Z,46.54
2022-08-20T11:00:42.165Z,46.71
2022-08-20T11:03:09.653Z,45.87
2022-08-20T11:05:37.130Z,46.24
2022-08-20T11:08:05.554Z,46.50
2022-08-20T11:10:35.111Z,46.60
2022-08-20T11:13:03.877Z,47.57
2022-08-20T11:15:37.298Z,45.61
2022-08-20T11:18:06.892Z,43.73
2022-08-20T11:20:34.757Z,44.58
2022-08-20T11:23:02.603Z,42.63
2022-08-20T11:25:30.656Z,42.97
2022-08-20T11:27:58.749Z,42.48
2022-08-20T11:30:28.993Z,41.96
2022-08-20T11:32:57.137Z,42.11
2022-08-20T11:35:43.463Z,40.30
2022-08-20T11:38:14.451Z,40.12
2022-08-20T11:40:41.955Z,39.40
2022-08-20T11:43:17.836Z,39.90
2022-08-20T11:45:46.439Z,38.46
2022-08-20T11:48:14.491Z,38.05
2022-08-20T11:50:43.327Z,38.74
2022-08-20T11:53:10.980Z,38.58
2022-08-20T11:55:38.903Z,37.00
2022-08-20T11:58:06.715Z,41.35
2022-08-20T12:00:36.638Z,40.00
2022-08-20T12:03:08.878Z,37.99
2022-08-20T12:05:37.759Z,35.78
2022-08-20T12:08:08.298Z,38.39
2022-08-20T12:10:36.535Z,38.69
2022-08-20T12:13:04.704Z,36.92
2022-08-20T12:15:32.804Z,36.74
2022-08-20T12:18:01.118Z,35.73
2022-08-20T12:20:28.709Z,36.37
2022-08-20T12:22:56.569Z,37.11
2022-08-20T12:25:25.595Z,36.76
2022-08-20T12:27:53.119Z,37.15
2022-08-20T12:30:22.469Z,37.67
2022-08-20T12:32:50.149Z,36.15
2022-08-20T12:35:19.475Z,36.11
2022-08-20T12:37:47.442Z,37.92
2022-08-20T12:40:21.477Z,36.95
2022-08-20T12:43:01.353Z,36.53
2022-08-20T12:45:29.489Z,34.06
2022-08-20T12:48:02.638Z,33.32
2022-08-20T12:50:31.792Z,34.55
2022-08-20T12:52:59.758Z,34.28
2022-08-20T12:55:27.458Z,32.71
2022-08-20T12:57:57.110Z,32.66
2022-08-20T13:00:28.419Z,32.64
2022-08-20T13:02:58.607Z,33.69
2022-08-20T13:05:28.081Z,33.64
2022-08-20T13:07:56.055Z,33.34
2022-08-20T13:10:27.849Z,34.42
2022-08-20T13:12:55.524Z,35.14
2022-08-20T13:15:23.943Z,33.81
2022-08-20T13:17:53.895Z,34.41
2022-08-20T13:20:21.861Z,34.58
2022-08-20T13:22:49.506Z,34.49
2022-08-20T13:25:17.075Z,35.11
2022-08-20T13:27:45.493Z,35.18
2022-08-20T13:30:15.726Z,34.90
2022-08-20T13:32:43.274Z,32.85
2022-08-20T13:35:13.056Z,34.38
2022-08-20T13:37:42.595Z,33.45
2022-08-20T13:40:11.446Z,33.36
2022-08-20T13:42:41.021Z,34.43
2022-08-20T13:45:10.471Z,33.60
2022-08-20T13:47:40.021Z,33.79
2022-08-20T13:50:10.195Z,32.28
2022-08-20T13:52:39.715Z,33.38
2022-08-20T13:55:12.173Z,31.69
2022-08-20T13:57:40.956Z,31.48
2022-08-20T14:00:11.763Z,32.00
2022-08-20T14:02:39.392Z,31.71
2022-08-20T14:05:07.857Z,31.32
2022-08-20T14:07:39.680Z,31.71
2022-08-20T14:10:09.814Z,32.02
2022-08-20T14:12:37.613Z,32.33
2022-08-20T14:15:06.586Z,31.58
2022-08-20T14:17:35.410Z,29.61
2022-08-20T14:20:05.737Z,27.58
2022-08-20T14:22:36.485Z,30.41
2022-08-20T14:25:06.606Z,29.34
2022-08-20T14:27:34.560Z,29.22
2022-08-20T14:30:02.877Z,28.59
2022-08-20T14:32:30.464Z,27.49
2022-08-20T14:34:59.344Z,28.62
2022-08-20T14:37:30.362Z,28.34
2022-08-20T14:39:59.341Z,29.47
2022-08-20T14:42:30.385Z,28.13
2022-08-20T14:44:58.884Z,28.75
2022-08-20T14:47:27.952Z,29.84
2022-08-20T14:49:59.577Z,30.52
2022-08-20T14:52:28.183Z,31.07
2022-08-20T14:54:56.577Z,30.13
2022-08-20T14:57:24.374Z,30.78
2022-08-20T14:59:54.706Z,30.53
2022-08-20T15:02:22.335Z,31.49
2022-08-20T15:04:54.465Z,30.43
2022-08-20T15:07:25.001Z,31.49
2022-08-20T15:09:53.553Z,31.69
2022-08-20T15:12:21.184Z,31.73
2022-08-20T15:14:50.271Z,32.58
2022-08-20T15:17:21.589Z,32.68
2022-08-20T15:19:49.875Z,31.98
2022-08-20T15:22:18.491Z,32.10
2022-08-20T15:24:46.115Z,32.74
2022-08-20T15:27:20.383Z,32.56
2022-08-20T15:29:50.478Z,32.41
2022-08-20T15:32:20.119Z,32.25
2022-08-20T15:34:47.859Z,32.35
2022-08-20T15:37:18.687Z,32.19
2022-08-20T15:39:46.648Z,32.75
2022-08-20T15:42:14.874Z,32.71
2022-08-20T15:44:43.549Z,32.41
2022-08-20T15:47:24.008Z,31.91
2022-08-20T15:49:54.687Z,32.12
2022-08-20T15:52:22.694Z,32.64
2022-08-20T15:54:54.995Z,33.34
2022-08-20T15:57:35.898Z,31.82
2022-08-20T16:00:13.101Z,31.55
2022-08-20T16:02:57.565Z,31.64
2022-08-20T16:05:30.801Z,32.15
2022-08-20T16:08:08.674Z,32.34
2022-08-20T16:10:44.528Z,31.65
2022-08-20T16:13:21.588Z,32.11
2022-08-20T16:15:53.136Z,32.44
2022-08-20T16:18:24.221Z,32.12
2022-08-20T16:20:54.045Z,31.88
2022-08-20T16:23:24.719Z,32.08
2022-08-20T16:26:00.070Z,32.55
2022-08-20T16:28:32.001Z,32.80
2022-08-20T16:31:01.754Z,32.80
2022-08-20T16:33:32.953Z,33.77
2022-08-20T16:36:08.008Z,32.93
2022-08-20T16:38:41.873Z,32.90
2022-08-20T16:41:14.052Z,33.49
2022-08-20T16:43:47.050Z,33.28
2022-08-20T16:46:18.520Z,33.55
2022-08-20T16:48:51.082Z,33.50
2022-08-20T16:51:22.610Z,33.75
2022-08-20T16:53:50.071Z,33.75
2022-08-20T16:56:31.517Z,33.79
2022-08-20T16:59:02.969Z,34.33
2022-08-20T17:01:30.765Z,34.00
2022-08-20T17:03:59.886Z,34.16
2022-08-20T17:06:33.591Z,33.66
2022-08-20T17:09:06.348Z,34.59
2022-08-20T17:11:36.275Z,34.38
2022-08-20T17:14:10.304Z,34.37
2022-08-20T17:16:40.767Z,34.48
2022-08-20T17:19:13.494Z,34.14
2022-08-20T17:21:42.153Z,34.06
2022-08-20T17:24:16.704Z,34.57
2022-08-20T17:26:46.733Z,34.87
2022-08-20T17:29:16.175Z,34.63
2022-08-20T17:31:46.222Z,34.46
2022-08-20T17:34:16.426Z,34.50
2022-08-20T17:36:53.925Z,35.97
2022-08-20T17:39:22.816Z,34.98
2022-08-20T17:41:53.544Z,36.26
2022-08-20T17:44:23.364Z,35.32
2022-08-20T17:46:51.084Z,34.82
2022-08-20T17:49:21.344Z,34.81
2022-08-20T17:51:51.276Z,35.13
2022-08-20T17:54:23.310Z,35.07
2022-08-20T17:56:54.225Z,36.80
2022-08-20T18:00:00.369Z,36.44
2022-08-20T18:02:14.767Z,35.55
2022-08-20T18:04:43.989Z,35.66
2022-08-20T18:07:19.240Z,35.92
2022-08-20T18:09:51.797Z,35.91
2022-08-20T18:12:33.318Z,36.49
2022-08-20T18:15:07.470Z,36.74
2022-08-20T18:17:49.387Z,36.79
2022-08-20T18:20:37.883Z,36.86
2022-08-20T18:23:09.242Z,36.46
2022-08-20T18:25:39.247Z,37.29
2022-08-20T18:28:10.681Z,37.67
2022-08-20T18:30:48.623Z,36.84
2022-08-20T18:33:27.372Z,37.10
2022-08-20T18:36:11.158Z,37.32
2022-08-20T18:38:42.021Z,38.02
2022-08-20T18:41:12.742Z,38.08
2022-08-20T18:43:40.766Z,38.72
2022-08-20T18:46:14.264Z,38.95
2022-08-20T18:48:55.626Z,38.42
2022-08-20T18:51:30.156Z,39.22
2022-08-20T18:53:57.685Z,38.95
2022-08-20T18:56:41.158Z,40.44
2022-08-20T18:59:14.362Z,40.01
2022-08-20T19:01:43.007Z,41.01
2022-08-20T19:04:22.422Z,40.95
2022-08-20T19:06:57.466Z,40.32
2022-08-20T19:09:49.856Z,39.88
2022-08-20T19:12:29.415Z,41.32
2022-08-20T19:15:01.336Z,42.09
2022-08-20T19:17:44.366Z,43.45
2022-08-20T19:20:16.295Z,43.05
2022-08-20T19:22:45.961Z,43.11
2022-08-20T19:25:23.700Z,43.60
2022-08-20T19:27:51.609Z,43.64
2022-08-20T19:30:29.747Z,44.27
2022-08-20T19:32:57.451Z,44.38
2022-08-20T19:35:25.374Z,44.63
2022-08-20T19:37:54.372Z,44.85
2022-08-20T19:40:28.280Z,44.94
2022-08-20T19:42:57.992Z,45.39
2022-08-20T19:45:30.774Z,45.48
2022-08-20T19:48:18.224Z,45.49
2022-08-20T19:51:02.094Z,45.79
2022-08-20T19:53:33.022Z,45.47
2022-08-20T19:56:02.218Z,46.12
2022-08-20T19:58:31.358Z,46.48
2022-08-20T20:00:59.437Z,46.54
2022-08-20T20:03:30.234Z,45.64
2022-08-20T20:06:02.009Z,45.77
2022-08-20T20:08:39.903Z,46.26
2022-08-20T20:11:07.818Z,46.61
2022-08-20T20:13:39.913Z,46.18
2022-08-20T20:16:08.111Z,46.90
2022-08-20T20:18:39.056Z,47.12
2022-08-20T20:21:15.101Z,47.43
2022-08-20T20:23:52.251Z,47.05
2022-08-20T20:26:20.809Z,47.58
2022-08-20T20:28:50.376Z,47.73
2022-08-20T20:31:24.541Z,47.82
2022-08-20T20:33:54.793Z,47.74
2022-08-20T20:36:33.887Z,47.99
2022-08-20T20:39:08.472Z,48.07
2022-08-20T20:41:38.967Z,48.86
2022-08-20T20:44:17.102Z,48.84
2022-08-20T20:46:47.363Z,49.67
2022-08-20T20:49:21.230Z,50.81
2022-08-20T20:51:55.369Z,51.55
2022-08-20T20:54:28.398Z,51.33
2022-08-20T20:57:02.447Z,51.29
2022-08-20T20:59:30.687Z,51.49
2022-08-20T21:01:58.307Z,50.96
2022-08-20T21:04:26.361Z,50.85
2022-08-20T21:06:56.614Z,51.63
2022-08-20T21:09:26.564Z,52.93
2022-08-20T21:11:54.200Z,54.26
2022-08-20T21:14:21.782Z,52.36
2022-08-20T21:16:49.350Z,52.38
2022-08-20T21:19:17.080Z,52.70
2022-08-20T21:21:44.911Z,53.10
2022-08-20T21:24:13.003Z,52.95
2022-08-20T21:26:42.242Z,52.71
2022-08-20T21:29:10.909Z,53.38
2022-08-20T21:31:43.938Z,54.49
2022-08-20T21:34:11.951Z,54.52
2022-08-20T21:36:39.699Z,55.97
2022-08-20T21:39:07.326Z,56.29
2022-08-20T21:41:36.427Z,55.33
2022-08-20T21:44:08.442Z,54.81
2022-08-20T21:46:36.040Z,55.20
2022-08-20T21:49:04.535Z,55.10
2022-08-20T21:51:32.466Z,54.53
2022-08-20T21:54:00.786Z,54.85
2022-08-20T21:56:28.372Z,55.23
2022-08-20T21:59:00.160Z,55.52
2022-08-20T22:01:29.714Z,56.75
2022-08-20T22:03:57.323Z,56.13
2022-08-20T22:06:25.005Z,54.92
2022-08-20T22:08:52.565Z,54.89
2022-08-20T22:11:20.542Z,57.05
2022-08-20T22:13:48.100Z,58.17
2022-08-20T22:16:18.415Z,57.50
2022-08-20T22:18:48.596Z,56.83
2022-08-20T22:21:18.387Z,57.33
2022-08-20T22:23:46.637Z,56.09
2022-08-20T22:26:16.223Z,57.49
2022-08-20T22:28:43.948Z,58.65
2022-08-20T22:31:20.614Z,58.26
2022-08-20T22:33:49.521Z,57.64
2022-08-20T22:36:27.687Z,57.06
2022-08-20T22:38:55.709Z,57.59
2022-08-20T22:41:26.226Z,57.04
2022-08-20T22:43:56.515Z,58.47
2022-08-20T22:46:26.757Z,59.33
2022-08-20T22:48:55.956Z,59.25
2022-08-20T22:51:28.223Z,58.99
2022-08-20T22:53:55.892Z,59.51
2022-08-20T22:56:23.454Z,59.27
2022-08-20T22:58:51.013Z,59.82
2022-08-20T23:01:19.784Z,58.92
2022-08-20T23:03:47.463Z,58.56
2022-08-20T23:06:16.584Z,57.85
2022-08-20T23:08:45.392Z,58.61
2022-08-20T23:11:13.702Z,59.15
2022-08-20T23:13:41.196Z,60.46
2022-08-20T23:16:08.941Z,61.23
2022-08-20T23:18:36.545Z,61.61
2022-08-20T23:21:04.131Z,61.63
2022-08-20T23:23:33.497Z,61.38
2022-08-20T23:26:01.390Z,60.70
2022-08-20T23:28:29.029Z,61.90
2022-08-20T23:30:56.583Z,62.29
2022-08-20T23:33:24.185Z,62.40
2022-08-20T23:35:51.788Z,61.12
2022-08-20T23:38:20.535Z,60.25
2022-08-20T23:40:49.617Z,59.68
2022-08-20T23:43:18.679Z,60.91
2022-08-20T23:45:46.384Z,61.04
2022-08-20T23:48:14.056Z,61.94
2022-08-20T23:50:42.001Z,61.01
2022-08-20T23:53:09.838Z,61.07
2022-08-20T23:55:38.948Z,61.64
2022-08-20T23:58:08.261Z,62.69
